Time;durP1;ratioP1;P1;durP2;ratioP2;P2;SDS_P1;SDS_P2;PMS_P1;PMS_P2;Temp;Humidity;BMP_temperature;BMP_pressure;BME280_temperature;BME280_humidity;BME280_pressure;Samples;Min_cycle;Max_cycle;Signal;HPM_P1;HPM_P2
2022/09/19 00:01:49;;;;;;;7.40;1.80;;;;;;;9.76;100.00;100333.56;108362;1271;71492;-83
2022/09/19 00:04:24;;;;;;;12.40;1.90;;;;;;;9.77;100.00;100336.23;108309;1271;73318;-82
2022/09/19 00:06:53;;;;;;;8.20;1.60;;;;;;;9.77;100.00;100338.71;108393;1271;62295;-82
2022/09/19 00:09:22;;;;;;;7.00;1.50;;;;;;;9.78;100.00;100339.80;108313;1271;61889;-82
2022/09/19 00:11:51;;;;;;;7.70;1.50;;;;;;;9.80;100.00;100343.78;108368;1271;75537;-81
2022/09/19 00:14:24;;;;;;;9.10;1.80;;;;;;;9.81;100.00;100347.41;108333;1271;71420;-81
2022/09/19 00:16:56;;;;;;;7.40;1.50;;;;;;;9.83;100.00;100350.71;108464;1270;74356;-82
2022/09/19 00:19:23;;;;;;;6.90;1.40;;;;;;;9.86;100.00;100353.04;108422;1271;62281;-82
2022/09/19 00:21:54;;;;;;;5.10;1.20;;;;;;;9.85;100.00;100360.61;108414;1271;60132;-83
2022/09/19 00:27:10;;;;;;;6.80;1.60;;;;;;;9.86;100.00;100362.76;108423;1271;70853;-82
2022/09/19 00:29:39;;;;;;;7.80;1.50;;;;;;;9.85;100.00;100367.46;108396;1271;74809;-83
2022/09/19 00:32:07;;;;;;;6.00;1.50;;;;;;;9.84;100.00;100371.45;108407;1271;63323;-82
2022/09/19 00:34:35;;;;;;;6.30;1.30;;;;;;;9.86;100.00;100373.25;108467;1271;60322;-82
2022/09/19 00:37:01;;;;;;;7.70;1.40;;;;;;;9.86;100.00;100377.39;108412;1271;73334;-82
2022/09/19 00:39:29;;;;;;;6.30;1.30;;;;;;;9.88;100.00;100384.83;108310;1274;70568;-83
2022/09/19 00:41:56;;;;;;;6.70;1.60;;;;;;;9.89;100.00;100391.04;108214;1274;73121;-82
2022/09/19 00:44:22;;;;;;;7.20;1.60;;;;;;;9.90;100.00;100391.80;108374;1271;62230;-82
2022/09/19 00:46:55;;;;;;;5.80;1.60;;;;;;;9.88;100.00;100397.80;108324;1271;59569;-82
2022/09/19 00:49:25;;;;;;;5.60;1.60;;;;;;;9.89;100.00;100395.85;108364;1271;73221;-82
2022/09/19 00:52:00;;;;;;;9.50;1.70;;;;;;;9.89;100.00;100392.99;108340;1271;72174;-81
2022/09/19 00:54:31;;;;;;;6.70;1.90;;;;;;;9.89;100.00;100395.83;108302;1273;71851;-82
2022/09/19 00:57:00;;;;;;;9.80;2.20;;;;;;;9.90;100.00;100400.80;108311;1273;62153;-81
2022/09/19 00:59:31;;;;;;;10.30;2.30;;;;;;;9.89;100.00;100406.20;108273;1271;59217;-81
2022/09/19 01:01:59;;;;;;;8.20;2.40;;;;;;;9.87;100.00;100415.96;108365;1271;74562;-81
2022/09/19 01:04:29;;;;;;;5.10;1.90;;;;;;;9.88;100.00;100417.32;108244;1272;71775;-80
2022/09/19 01:07:14;;;;;;;6.10;1.80;;;;;;;9.90;100.00;100412.63;108388;1271;74206;-82
2022/09/19 01:09:57;;;;;;;4.50;1.90;;;;;;;9.91;100.00;100413.61;108329;1274;63113;-81
2022/09/19 01:12:51;;;;;;;8.70;2.20;;;;;;;9.88;100.00;100411.42;108401;1272;61721;-82
2022/09/19 01:15:24;;;;;;;5.80;1.90;;;;;;;9.89;100.00;100416.85;108429;1271;72655;-82
2022/09/19 01:18:01;;;;;;;6.20;1.90;;;;;;;9.90;100.00;100418.36;108259;1274;74030;-81
2022/09/19 01:20:50;;;;;;;5.60;2.00;;;;;;;9.89;100.00;100426.55;108396;1271;72936;-80
2022/09/19 01:23:36;;;;;;;5.20;1.70;;;;;;;9.89;100.00;100425.54;108216;1271;62228;-82
2022/09/19 01:26:15;;;;;;;5.50;1.70;;;;;;;9.87;100.00;100426.53;108416;1271;60307;-82
2022/09/19 01:29:02;;;;;;;5.70;1.80;;;;;;;9.87;100.00;100430.11;108378;1273;73556;-82
2022/09/19 01:31:34;;;;;;;5.80;2.00;;;;;;;9.87;100.00;100441.46;108337;1274;72348;-82
2022/09/19 01:34:18;;;;;;;7.80;1.80;;;;;;;9.88;100.00;100446.48;108350;1271;74485;-81
2022/09/19 01:36:52;;;;;;;6.40;1.80;;;;;;;9.87;100.00;100446.85;108290;1273;62090;-83
2022/09/19 01:39:24;;;;;;;5.30;1.50;;;;;;;9.86;100.00;100449.84;108363;1270;59843;-83
2022/09/19 01:41:53;;;;;;;6.70;1.80;;;;;;;9.87;100.00;100450.48;108311;1274;74406;-82
2022/09/19 01:44:22;;;;;;;7.20;2.00;;;;;;;9.86;100.00;100453.52;108303;1271;71276;-81
2022/09/19 01:47:08;;;;;;;8.40;1.70;;;;;;;9.86;100.00;100449.29;108284;1272;72867;-80
2022/09/19 01:50:01;;;;;;;6.60;1.70;;;;;;;9.85;100.00;100449.48;108330;1271;62529;-81
2022/09/19 01:52:53;;;;;;;10.20;2.00;;;;;;;9.83;100.00;100462.39;108413;1271;60523;-80
2022/09/19 01:55:26;;;;;;;5.40;1.80;;;;;;;9.82;100.00;100462.31;108449;1271;73566;-81
2022/09/19 01:58:08;;;;;;;7.60;2.20;;;;;;;9.82;100.00;100469.05;108242;1274;71132;-81
2022/09/19 02:00:41;;;;;;;5.90;1.80;;;;;;;9.83;100.00;100469.80;108359;1271;74297;-80
2022/09/19 02:03:36;;;;;;;5.70;1.90;;;;;;;9.82;100.00;100469.23;108268;1271;62447;-81
2022/09/19 02:06:09;;;;;;;7.40;1.90;;;;;;;9.76;100.00;100474.78;108319;1274;59613;-80
2022/09/19 02:08:58;;;;;;;7.20;1.90;;;;;;;9.73;100.00;100474.59;108320;1273;74558;-81
2022/09/19 02:11:27;;;;;;;7.00;1.60;;;;;;;9.67;100.00;100481.45;108391;1271;72883;-80
2022/09/19 02:13:58;;;;;;;7.50;1.70;;;;;;;9.64;100.00;100480.55;108379;1271;73751;-81
2022/09/19 02:16:33;;;;;;;4.30;1.50;;;;;;;9.59;100.00;100487.81;108312;1271;61246;-79
2022/09/19 02:19:06;;;;;;;5.40;1.70;;;;;;;9.56;100.00;100494.42;108305;1271;61465;-80
2022/09/19 02:21:38;;;;;;;6.30;1.70;;;;;;;9.53;100.00;100498.27;108320;1274;73203;-81
2022/09/19 02:24:13;;;;;;;8.10;2.00;;;;;;;9.50;100.00;100501.23;108379;1271;73046;-81
2022/09/19 02:26:42;;;;;;;5.00;1.80;;;;;;;9.46;100.00;100500.06;108417;1272;71404;-80
2022/09/19 02:29:14;;;;;;;8.20;2.20;;;;;;;9.44;100.00;100505.66;108372;1270;62655;-81
2022/09/19 02:31:41;;;;;;;4.70;2.00;;;;;;;9.38;100.00;100506.66;108293;1271;59881;-79
2022/09/19 02:34:08;;;;;;;4.40;1.80;;;;;;;9.36;100.00;100510.50;108277;1272;74662;-81
2022/09/19 02:36:50;;;;;;;5.80;2.00;;;;;;;9.33;100.00;100505.73;108280;1274;72924;-80
2022/09/19 02:39:28;;;;;;;6.50;1.90;;;;;;;9.28;100.00;100517.77;108392;1271;74132;-81
2022/09/19 02:42:12;;;;;;;5.20;2.20;;;;;;;9.26;100.00;100515.40;108330;1273;62493;-80
2022/09/19 02:44:57;;;;;;;7.10;2.40;;;;;;;9.25;100.00;100516.27;108406;1271;59585;-80
2022/09/19 02:47:37;;;;;;;8.20;2.30;;;;;;;9.22;100.00;100520.80;108404;1270;71940;-81
2022/09/19 02:50:12;;;;;;;6.90;1.90;;;;;;;9.19;100.00;100525.80;108403;1269;71145;-81
2022/09/19 02:52:41;;;;;;;3.10;1.60;;;;;;;9.18;100.00;100524.39;108401;1271;72910;-81
2022/09/19 02:55:15;;;;;;;7.20;2.10;;;;;;;9.18;100.00;100525.75;108354;1271;62660;-81
2022/09/19 02:57:51;;;;;;;5.20;1.70;;;;;;;9.15;100.00;100526.98;108354;1272;61466;-81
2022/09/19 03:00:18;;;;;;;6.80;1.80;;;;;;;9.13;100.00;100530.83;108488;1271;73298;-81
2022/09/19 03:02:56;;;;;;;9.00;2.00;;;;;;;9.10;100.00;100527.75;108287;1271;71208;-81
2022/09/19 03:05:26;;;;;;;9.10;1.80;;;;;;;9.07;100.00;100534.21;108399;1271;73795;-80
2022/09/19 03:08:00;;;;;;;7.70;1.50;;;;;;;9.06;100.00;100533.35;108308;1271;60521;-79
2022/09/19 03:10:35;;;;;;;8.50;1.80;;;;;;;9.04;100.00;100532.78;108244;1273;60319;-80
2022/09/19 03:13:06;;;;;;;3.30;1.70;;;;;;;9.02;100.00;100532.73;108368;1271;74122;-80
2022/09/19 03:16:18;;;;;;;7.70;1.90;;;;;;;9.00;100.00;100540.64;108363;1271;72646;-79
2022/09/19 03:18:46;;;;;;;7.20;2.00;;;;;;;8.98;100.00;100539.95;108181;1273;74533;-79
2022/09/19 03:21:19;;;;;;;6.20;2.50;;;;;;;8.96;100.00;100549.84;108285;1271;62790;-80
2022/09/19 03:23:48;;;;;;;7.20;2.80;;;;;;;8.95;100.00;100552.79;108414;1271;60511;-79
2022/09/19 03:26:21;;;;;;;7.60;2.60;;;;;;;8.96;100.00;100557.30;108224;1271;74422;-79
2022/09/19 03:28:48;;;;;;;8.30;3.10;;;;;;;8.94;100.00;100565.22;108138;1271;72597;-78
2022/09/19 03:31:16;;;;;;;5.90;2.70;;;;;;;8.92;100.00;100558.31;108178;1274;73979;-78
2022/09/19 03:33:43;;;;;;;8.40;3.10;;;;;;;8.89;100.00;100561.26;108288;1271;62588;-78
2022/09/19 03:36:11;;;;;;;7.70;2.90;;;;;;;8.88;100.00;100558.72;108209;1271;61353;-78
2022/09/19 03:38:42;;;;;;;9.20;2.80;;;;;;;8.85;100.00;100565.57;108244;1271;74492;-78
2022/09/19 03:41:09;;;;;;;10.10;3.20;;;;;;;8.83;100.00;100565.14;108343;1273;69971;-78
2022/09/19 03:43:37;;;;;;;8.00;2.70;;;;;;;8.82;100.00;100567.85;108179;1274;71797;-78
2022/09/19 03:46:03;;;;;;;8.40;2.70;;;;;;;8.80;100.00;100565.80;108351;1271;60998;-77
2022/09/19 03:48:32;;;;;;;10.10;2.80;;;;;;;8.77;100.00;100570.82;108293;1271;60579;-78
2022/09/19 03:51:01;;;;;;;6.20;2.60;;;;;;;8.75;100.00;100572.65;108200;1272;74289;-78
2022/09/19 03:53:27;;;;;;;8.30;2.80;;;;;;;8.73;100.00;100575.91;108379;1271;70435;-78
2022/09/19 03:55:55;;;;;;;12.90;2.90;;;;;;;8.73;100.00;100579.53;108296;1271;72615;-77
2022/09/19 03:58:23;;;;;;;9.80;2.80;;;;;;;8.71;100.00;100581.00;108131;1271;62493;-78
2022/09/19 04:00:50;;;;;;;13.50;3.10;;;;;;;8.70;100.00;100579.48;108254;1273;60333;-77
2022/09/19 04:03:18;;;;;;;7.10;2.60;;;;;;;8.70;100.00;100579.22;108268;1273;73884;-78
2022/09/19 04:05:45;;;;;;;8.50;2.80;;;;;;;8.68;100.00;100580.48;108168;1274;71287;-78
2022/09/19 04:08:13;;;;;;;8.80;2.80;;;;;;;8.68;100.00;100578.89;108253;1271;73048;-78
2022/09/19 04:10:42;;;;;;;7.20;2.80;;;;;;;8.66;100.00;100580.48;108243;1271;61920;-78
2022/09/19 04:13:10;;;;;;;8.30;2.70;;;;;;;8.65;100.00;100580.80;108307;1272;60339;-78
2022/09/19 04:15:37;;;;;;;7.80;2.80;;;;;;;8.65;100.00;100582.59;108374;1271;74085;-78
2022/09/19 04:18:05;;;;;;;9.80;2.50;;;;;;;8.63;100.00;100585.21;108274;1271;71412;-77
2022/09/19 04:20:33;;;;;;;6.80;2.60;;;;;;;8.62;100.00;100584.96;108155;1274;71796;-78
2022/09/19 04:23:00;;;;;;;9.00;2.90;;;;;;;8.61;100.00;100587.94;108148;1274;61643;-77
2022/09/19 04:25:35;;;;;;;7.70;2.30;;;;;;;8.61;100.00;100590.19;108302;1270;60767;-78
2022/09/19 04:28:03;;;;;;;9.90;2.60;;;;;;;8.60;100.00;100598.62;108115;1271;73898;-78
2022/09/19 04:30:31;;;;;;;6.00;2.60;;;;;;;8.61;100.00;100596.44;108195;1274;72270;-78
2022/09/19 04:33:01;;;;;;;8.90;2.70;;;;;;;8.61;100.00;100600.27;108215;1271;72894;-78
2022/09/19 04:35:28;;;;;;;9.00;2.80;;;;;;;8.60;100.00;100601.84;108343;1271;62410;-78
2022/09/19 04:37:55;;;;;;;8.70;2.50;;;;;;;8.57;100.00;100604.30;108232;1274;61312;-78
2022/09/19 04:40:22;;;;;;;6.70;1.90;;;;;;;8.59;100.00;100604.05;108339;1271;75922;-78
2022/09/19 04:42:49;;;;;;;7.90;2.20;;;;;;;8.57;100.00;100608.61;108384;1271;72793;-78
2022/09/19 04:45:20;;;;;;;9.30;2.20;;;;;;;8.57;100.00;100611.41;108233;1271;72645;-78
2022/09/19 04:47:47;;;;;;;8.30;2.50;;;;;;;8.58;100.00;100607.64;108381;1271;62604;-78
2022/09/19 04:50:15;;;;;;;9.00;2.80;;;;;;;8.59;100.00;100614.63;108388;1270;62750;-78
2022/09/19 04:52:41;;;;;;;7.50;2.30;;;;;;;8.60;100.00;100616.80;108211;1273;75751;-78
2022/09/19 04:55:09;;;;;;;12.30;2.60;;;;;;;8.60;100.00;100617.66;108323;1271;74108;-78
2022/09/19 04:57:36;;;;;;;10.90;2.70;;;;;;;8.61;100.00;100623.12;108236;1270;73012;-78
2022/09/19 05:00:03;;;;;;;9.40;2.70;;;;;;;8.61;100.00;100620.38;108242;1271;61476;-79
2022/09/19 05:02:31;;;;;;;6.20;2.20;;;;;;;8.63;100.00;100625.59;108287;1271;60599;-79
2022/09/19 05:04:59;;;;;;;8.40;2.50;;;;;;;8.65;100.00;100624.84;108365;1271;73618;-76
2022/09/19 05:07:33;;;;;;;8.10;2.20;;;;;;;8.66;100.00;100627.51;108354;1270;72339;-76
2022/09/19 05:10:02;;;;;;;7.60;2.20;;;;;;;8.70;100.00;100631.52;108286;1271;71579;-76
2022/09/19 05:12:28;;;;;;;9.60;2.10;;;;;;;8.74;100.00;100632.70;108054;1274;61285;-76
2022/09/19 05:14:55;;;;;;;6.40;1.70;;;;;;;8.74;100.00;100635.52;108264;1271;60475;-76
2022/09/19 05:17:23;;;;;;;10.50;2.20;;;;;;;8.76;100.00;100637.17;108166;1274;74538;-76
2022/09/19 05:19:50;;;;;;;9.20;2.30;;;;;;;8.78;100.00;100636.33;108279;1272;71510;-76
2022/09/19 05:22:16;;;;;;;7.70;2.00;;;;;;;8.81;100.00;100639.39;108311;1274;72989;-77
2022/09/19 05:24:43;;;;;;;9.10;1.80;;;;;;;8.83;100.00;100646.44;108295;1271;62499;-77
2022/09/19 05:27:11;;;;;;;8.50;2.10;;;;;;;8.86;100.00;100647.86;108299;1271;61874;-74
2022/09/19 05:29:39;;;;;;;9.60;2.10;;;;;;;8.88;100.00;100649.14;108170;1271;75068;-75
2022/09/19 05:32:06;;;;;;;7.70;1.50;;;;;;;8.92;100.00;100657.24;108207;1273;72081;-76
2022/09/19 05:34:33;;;;;;;11.20;1.90;;;;;;;8.96;100.00;100654.14;108194;1274;72499;-76
2022/09/19 05:36:59;;;;;;;7.20;1.80;;;;;;;9.00;100.00;100651.83;108399;1271;60690;-77
2022/09/19 05:39:27;;;;;;;7.90;2.10;;;;;;;9.00;100.00;100655.84;108232;1271;59545;-76
2022/09/19 05:41:54;;;;;;;6.40;1.80;;;;;;;9.05;100.00;100656.42;108432;1271;74028;-76
2022/09/19 05:44:22;;;;;;;8.50;2.20;;;;;;;9.07;100.00;100658.45;108333;1271;71254;-77
2022/09/19 05:46:52;;;;;;;9.50;2.20;;;;;;;9.16;100.00;100662.58;108207;1273;72846;-77
2022/09/19 05:49:19;;;;;;;9.60;2.10;;;;;;;9.22;100.00;100668.86;108359;1271;63120;-76
2022/09/19 05:51:46;;;;;;;8.40;2.10;;;;;;;9.27;100.00;100670.17;108252;1274;61904;-76
2022/09/19 05:54:13;;;;;;;12.10;3.10;;;;;;;9.31;100.00;100673.41;108194;1271;74364;-77
2022/09/19 05:56:40;;;;;;;8.40;2.70;;;;;;;9.36;100.00;100678.51;108258;1273;72402;-76
2022/09/19 05:59:08;;;;;;;7.60;2.80;;;;;;;9.43;100.00;100680.66;108301;1271;72040;-77
2022/09/19 06:01:36;;;;;;;7.50;3.30;;;;;;;9.46;100.00;100687.06;108293;1274;61037;-77
2022/09/19 06:04:03;;;;;;;9.10;2.90;;;;;;;9.47;100.00;100693.95;108207;1273;60325;-77
2022/09/19 06:06:29;;;;;;;7.50;3.30;;;;;;;9.51;100.00;100691.75;108136;1271;74809;-78
2022/09/19 06:08:58;;;;;;;12.80;3.60;;;;;;;9.57;100.00;100695.33;108373;1271;72568;-78
2022/09/19 06:11:25;;;;;;;11.50;4.00;;;;;;;9.61;100.00;100698.67;108344;1274;73975;-78
2022/09/19 06:16:49;;;;;;;12.60;4.60;;;;;;;9.70;100.00;100696.95;108245;1274;60593;-78
2022/09/19 06:19:15;;;;;;;14.00;4.50;;;;;;;9.73;100.00;100702.08;108264;1273;74194;-78
2022/09/19 06:21:42;;;;;;;12.40;4.50;;;;;;;9.77;100.00;100700.02;108489;1271;70537;-78
2022/09/19 06:24:10;;;;;;;11.40;4.10;;;;;;;9.83;100.00;100710.86;108427;1271;73657;-79
2022/09/19 06:26:36;;;;;;;12.30;4.40;;;;;;;9.89;100.00;100707.23;108450;1270;62239;-79
2022/09/19 06:29:04;;;;;;;9.60;3.90;;;;;;;9.97;100.00;100710.79;108381;1271;59076;-79
2022/09/19 06:31:30;;;;;;;10.50;4.00;;;;;;;10.07;100.00;100712.61;108345;1272;73535;-79
2022/09/19 06:33:58;;;;;;;11.60;3.70;;;;;;;10.16;100.00;100719.89;108367;1273;72081;-79
2022/09/19 06:36:25;;;;;;;12.50;4.50;;;;;;;10.27;100.00;100720.66;108391;1271;74220;-80
2022/09/19 06:38:51;;;;;;;7.70;3.40;;;;;;;10.36;100.00;100719.68;108434;1271;62199;-79
2022/09/19 06:41:18;;;;;;;9.50;3.50;;;;;;;10.41;100.00;100725.45;108432;1271;60913;-80
2022/09/19 06:43:45;;;;;;;11.00;3.80;;;;;;;10.47;100.00;100728.81;108459;1271;75218;-80
2022/09/19 06:46:12;;;;;;;10.70;3.60;;;;;;;10.61;100.00;100725.13;108446;1271;71349;-80
2022/09/19 06:48:39;;;;;;;8.60;3.50;;;;;;;10.72;100.00;100729.77;108405;1271;74182;-80
2022/09/19 06:51:09;;;;;;;9.10;3.50;;;;;;;10.80;100.00;100735.89;108427;1271;63274;-79
2022/09/19 06:53:36;;;;;;;12.60;3.90;;;;;;;10.86;100.00;100736.25;108413;1271;61483;-80
2022/09/19 06:56:03;;;;;;;12.90;4.00;;;;;;;10.96;100.00;100739.38;108463;1271;74653;-80
2022/09/19 06:58:32;;;;;;;11.30;3.80;;;;;;;11.14;100.00;100735.73;108569;1271;71425;-80
2022/09/19 07:01:01;;;;;;;10.60;3.70;;;;;;;11.30;99.86;100746.92;108282;1274;72651;-80
2022/09/19 07:03:28;;;;;;;10.70;3.50;;;;;;;11.38;98.48;100745.00;108488;1271;62244;-79
2022/09/19 07:05:59;;;;;;;7.80;3.20;;;;;;;11.35;98.21;100746.02;108394;1271;60710;-79
2022/09/19 07:08:27;;;;;;;13.00;4.20;;;;;;;11.36;97.96;100749.42;108417;1271;75754;-80
2022/09/19 07:10:56;;;;;;;8.70;3.50;;;;;;;11.34;97.38;100753.60;108487;1271;71380;-79
2022/09/19 07:13:23;;;;;;;13.00;4.10;;;;;;;11.35;97.55;100753.85;108413;1271;74428;-80
2022/09/19 07:16:01;;;;;;;12.80;3.90;;;;;;;11.36;97.37;100756.67;108376;1271;61880;-80
2022/09/19 07:18:28;;;;;;;14.60;4.70;;;;;;;11.41;97.35;100755.27;108346;1271;61621;-79
2022/09/19 07:20:55;;;;;;;9.70;3.40;;;;;;;11.50;97.41;100760.45;108460;1271;74102;-79
2022/09/19 07:23:24;;;;;;;12.10;3.40;;;;;;;11.55;97.19;100763.78;108395;1273;72453;-79
2022/09/19 07:25:55;;;;;;;10.70;3.80;;;;;;;11.57;96.57;100763.34;108439;1271;72442;-79
2022/09/19 07:28:22;;;;;;;12.50;3.50;;;;;;;11.68;96.95;100764.17;108315;1274;61493;-79
2022/09/19 07:30:49;;;;;;;8.10;3.30;;;;;;;11.74;96.44;100761.45;108395;1271;61832;-79
2022/09/19 07:33:21;;;;;;;9.60;3.40;;;;;;;11.82;96.32;100763.56;108336;1271;74462;-79
2022/09/19 07:35:48;;;;;;;9.40;3.80;;;;;;;11.94;95.98;100769.69;108425;1271;71191;-79
2022/09/19 07:38:17;;;;;;;13.50;3.80;;;;;;;12.03;95.58;100766.08;108382;1271;73671;-79
2022/09/19 07:40:44;;;;;;;7.60;2.90;;;;;;;12.09;95.11;100768.98;108441;1271;63054;-79
2022/09/19 07:43:16;;;;;;;9.70;2.80;;;;;;;12.06;94.50;100778.48;108382;1273;59544;-78
2022/09/19 07:45:45;;;;;;;12.30;3.30;;;;;;;12.08;94.34;100784.50;108321;1274;73919;-79
2022/09/19 07:48:13;;;;;;;12.50;2.80;;;;;;;12.08;93.93;100784.23;108505;1270;70553;-78
2022/09/19 07:50:40;;;;;;;10.20;2.80;;;;;;;12.11;94.13;100784.84;107988;1273;73673;-79
2022/09/19 07:53:10;;;;;;;9.40;2.70;;;;;;;12.13;93.90;100792.92;107999;1271;60144;-79
2022/09/19 07:55:37;;;;;;;12.60;3.50;;;;;;;12.18;93.99;100795.32;108030;1271;61370;-79
2022/09/19 07:58:05;;;;;;;13.70;3.50;;;;;;;12.31;93.89;100796.33;107863;1274;74461;-79
2022/09/19 08:00:34;;;;;;;10.60;3.20;;;;;;;12.47;93.29;100796.26;107674;1273;72313;-78
2022/09/19 08:03:13;;;;;;;11.10;2.80;;;;;;;12.62;92.68;100801.52;107820;1271;72753;-79
2022/09/19 08:05:41;;;;;;;8.50;2.30;;;;;;;12.80;92.60;100806.98;107946;1273;62338;-79
2022/09/19 08:08:10;;;;;;;13.40;2.90;;;;;;;12.90;91.47;100806.02;107746;1271;60305;-79
2022/09/19 08:10:39;;;;;;;9.50;2.70;;;;;;;12.99;91.03;100806.83;107775;1271;73018;-78
2022/09/19 08:13:13;;;;;;;11.90;3.20;;;;;;;13.07;89.89;100809.39;107737;1271;71363;-79
2022/09/19 08:15:43;;;;;;;8.50;2.60;;;;;;;13.15;89.37;100817.33;107689;1274;73069;-78
2022/09/19 08:18:18;;;;;;;10.10;3.20;;;;;;;13.23;88.97;100812.29;107713;1274;60970;-78
2022/09/19 08:20:46;;;;;;;11.90;3.00;;;;;;;13.40;89.61;100813.67;107779;1271;61630;-78
2022/09/19 08:23:16;;;;;;;12.30;2.70;;;;;;;13.60;89.02;100816.80;107639;1274;73876;-78
2022/09/19 08:25:46;;;;;;;13.40;2.50;;;;;;;13.73;87.79;100817.02;107962;1271;72415;-78
2022/09/19 08:28:14;;;;;;;11.60;3.00;;;;;;;13.80;86.72;100815.59;107905;1271;73957;-78
2022/09/19 08:30:45;;;;;;;10.80;2.40;;;;;;;13.88;86.52;100817.36;107905;1273;62087;-78
2022/09/19 08:33:12;;;;;;;11.40;2.90;;;;;;;13.99;86.02;100817.95;107951;1270;59686;-79
2022/09/19 08:35:40;;;;;;;13.00;2.60;;;;;;;14.02;85.57;100821.06;107587;1271;74009;-78
2022/09/19 08:38:10;;;;;;;12.00;2.90;;;;;;;14.05;84.66;100825.36;107245;1273;71758;-79
2022/09/19 08:40:40;;;;;;;10.70;2.40;;;;;;;14.17;84.48;100830.20;107854;1274;72835;-78
2022/09/19 08:43:30;;;;;;;9.50;2.20;;;;;;;14.35;84.44;100826.13;107707;1271;61220;-79
2022/09/19 08:46:20;;;;;;;13.50;2.70;;;;;;;14.48;83.18;100826.45;107491;1271;60597;-78
2022/09/19 08:49:16;;;;;;;8.50;2.20;;;;;;;14.54;82.93;100830.80;108101;1271;74273;-78
2022/09/19 08:52:00;;;;;;;16.00;2.70;;;;;;;14.63;82.31;100835.38;107778;1271;71237;-78
2022/09/19 08:54:40;;;;;;;10.00;2.50;;;;;;;14.70;82.26;100837.71;107877;1271;72729;-77
2022/09/19 08:57:34;;;;;;;10.50;2.70;;;;;;;14.81;81.65;100847.20;107591;1272;63552;-78
2022/09/19 09:00:05;;;;;;;9.80;3.10;;;;;;;14.82;80.84;100839.86;107680;1274;61703;-78
2022/09/19 09:02:51;;;;;;;11.80;2.80;;;;;;;14.78;80.88;100842.05;108009;1273;74767;-77
2022/09/19 09:05:54;;;;;;;10.20;2.90;;;;;;;14.78;80.93;100840.05;107887;1274;72457;-78
2022/09/19 09:08:40;;;;;;;15.80;3.30;;;;;;;14.91;81.18;100839.94;107563;1273;72969;-78
2022/09/19 09:11:30;;;;;;;12.40;3.50;;;;;;;15.08;81.02;100844.02;107832;1271;63325;-78
2022/09/19 09:14:11;;;;;;;12.60;4.00;;;;;;;15.32;80.25;100842.84;107548;1273;60314;-77
2022/09/19 09:16:40;;;;;;;12.10;3.30;;;;;;;15.42;78.53;100847.11;107915;1271;74099;-79
2022/09/19 09:19:20;;;;;;;8.40;2.40;;;;;;;15.44;78.31;100849.88;107921;1272;71533;-77
2022/09/19 09:22:01;;;;;;;11.10;3.00;;;;;;;15.45;78.03;100847.11;107788;1271;74453;-78
2022/09/19 09:24:33;;;;;;;11.30;3.00;;;;;;;15.64;77.57;100841.29;107758;1271;62083;-78
2022/09/19 09:27:05;;;;;;;9.40;3.00;;;;;;;15.78;77.28;100846.92;107756;1270;60826;-78
2022/09/19 09:29:40;;;;;;;11.60;2.60;;;;;;;15.80;75.98;100854.09;107645;1271;74363;-78
2022/09/19 09:32:33;;;;;;;9.90;2.40;;;;;;;15.80;74.92;100849.44;107875;1271;72589;-78
2022/09/19 09:35:12;;;;;;;10.60;2.40;;;;;;;15.87;75.31;100851.54;108083;1274;73108;-78
2022/09/19 09:37:43;;;;;;;8.70;2.50;;;;;;;15.85;75.93;100854.91;107758;1271;61929;-77
2022/09/19 09:43:20;;;;;;;10.70;2.30;;;;;;;15.87;74.33;100860.17;107941;1274;74172;-78
2022/09/19 09:45:50;;;;;;;11.00;2.40;;;;;;;16.13;73.43;100851.94;108045;1271;71365;-77
2022/09/19 09:48:28;;;;;;;10.00;2.30;;;;;;;16.16;73.08;100851.39;107424;1271;72868;-77
2022/09/19 09:51:09;;;;;;;6.40;2.00;;;;;;;16.08;71.80;100855.63;107645;1271;63068;-77
2022/09/19 09:53:51;;;;;;;9.90;1.90;;;;;;;16.04;70.67;100853.59;107779;1271;60264;-77
2022/09/19 09:56:27;;;;;;;9.30;2.00;;;;;;;16.19;70.55;100850.27;107607;1271;74437;-78
2022/09/19 09:59:00;;;;;;;8.40;1.90;;;;;;;16.42;69.58;100847.55;107504;1271;72401;-77
2022/09/19 10:04:39;;;;;;;9.50;2.00;;;;;;;16.67;69.32;100847.12;107899;1271;62933;-77
2022/09/19 10:07:12;;;;;;;8.00;2.00;;;;;;;16.79;69.28;100839.04;107692;1271;61220;-77
2022/09/19 10:09:56;;;;;;;11.60;1.80;;;;;;;16.99;69.17;100836.50;107769;1274;72845;-76
2022/09/19 10:12:29;;;;;;;6.70;1.70;;;;;;;17.12;67.20;100836.68;107614;1273;70793;-77
2022/09/19 10:15:20;;;;;;;9.60;1.80;;;;;;;17.11;66.28;100836.77;108119;1271;75849;-77
2022/09/19 10:17:53;;;;;;;7.40;1.80;;;;;;;17.18;65.27;100829.76;107611;1271;61014;-76
2022/09/19 10:20:31;;;;;;;7.50;1.60;;;;;;;17.31;66.59;100824.73;108068;1272;60551;-76
2022/09/19 10:22:57;;;;;;;8.10;1.80;;;;;;;17.21;65.47;100831.73;107969;1271;74292;-77
2022/09/19 10:25:26;;;;;;;8.50;1.50;;;;;;;17.26;65.18;100826.61;107901;1274;72036;-76
2022/09/19 10:27:53;;;;;;;8.80;1.80;;;;;;;17.40;64.07;100825.90;107769;1271;73904;-76
2022/09/19 10:30:27;;;;;;;8.20;1.40;;;;;;;17.35;64.00;100819.58;107942;1273;63482;-78
2022/09/19 10:32:54;;;;;;;5.20;1.20;;;;;;;17.20;64.34;100826.45;107640;1273;62789;-77
2022/09/19 10:35:37;;;;;;;7.80;1.50;;;;;;;17.17;64.16;100828.39;107619;1271;73151;-77
2022/09/19 10:38:17;;;;;;;5.80;1.60;;;;;;;17.38;63.14;100821.67;107560;1271;71213;-76
2022/09/19 10:40:56;;;;;;;8.40;1.50;;;;;;;17.51;62.61;100819.64;107460;1273;73125;-76
2022/09/19 10:43:54;;;;;;;5.90;1.20;;;;;;;17.44;63.25;100814.73;108160;1269;61540;-76
2022/09/19 10:46:36;;;;;;;8.90;1.30;;;;;;;17.35;64.89;100809.80;107771;1271;60327;-76
2022/09/19 10:49:13;;;;;;;9.10;1.70;;;;;;;17.30;66.86;100808.48;107218;1271;73768;-77
2022/09/19 10:51:46;;;;;;;7.20;1.70;;;;;;;17.12;67.13;100805.25;107957;1271;71122;-78
2022/09/19 10:54:43;;;;;;;11.10;1.70;;;;;;;16.93;68.14;100797.11;107719;1273;73009;-77
2022/09/19 10:57:40;;;;;;;6.70;1.20;;;;;;;16.88;68.78;100795.99;107462;1272;61994;-76
2022/09/19 11:00:33;;;;;;;8.30;1.30;;;;;;;16.77;66.00;100798.30;108073;1271;60821;-77
2022/09/19 11:03:02;;;;;;;7.50;1.10;;;;;;;16.54;66.45;100803.56;107763;1274;73970;-75
2022/09/19 11:05:31;;;;;;;6.50;1.20;;;;;;;16.19;67.54;100801.77;107526;1271;70789;-75
2022/09/19 11:07:59;;;;;;;5.50;0.90;;;;;;;15.96;67.94;100797.77;107493;1274;74452;-75
2022/09/19 11:10:40;;;;;;;7.00;1.60;;;;;;;15.77;69.36;100798.36;108134;1271;61414;-76
2022/09/19 11:13:16;;;;;;;7.40;1.50;;;;;;;15.56;72.10;100794.89;107513;1271;61672;-76
2022/09/19 11:16:01;;;;;;;7.70;1.90;;;;;;;15.38;73.37;100801.20;108392;1271;73962;-75
2022/09/19 11:19:05;;;;;;;9.70;1.50;;;;;;;15.25;74.53;100801.06;108356;1271;70619;-76
2022/09/19 11:21:47;;;;;;;7.80;1.60;;;;;;;15.33;75.28;100800.20;107657;1271;73353;-77
2022/09/19 11:24:27;;;;;;;11.90;1.80;;;;;;;15.51;76.00;100802.09;107596;1271;62896;-77
2022/09/19 11:27:13;;;;;;;6.80;1.20;;;;;;;15.63;75.38;100800.86;107502;1271;60497;-77
2022/09/19 11:30:11;;;;;;;7.50;1.50;;;;;;;15.80;74.57;100795.89;107847;1271;75193;-76
2022/09/19 11:33:06;;;;;;;9.00;1.90;;;;;;;16.06;72.26;100798.42;107544;1270;71341;-77
2022/09/19 11:35:42;;;;;;;10.20;1.50;;;;;;;16.42;72.08;100793.09;107944;1274;73009;-77
2022/09/19 11:38:32;;;;;;;6.30;1.30;;;;;;;16.68;71.97;100794.77;107898;1273;61056;-78
2022/09/19 11:41:37;;;;;;;10.10;1.60;;;;;;;16.59;69.75;100793.08;107475;1271;60417;-75
2022/09/19 11:44:15;;;;;;;8.80;1.40;;;;;;;16.30;69.32;100795.11;107532;1271;75172;-74
2022/09/19 11:47:30;;;;;;;4.70;1.00;;;;;;;16.11;68.24;100798.36;107649;1271;71014;-75
2022/09/19 11:50:08;;;;;;;7.00;1.50;;;;;;;16.17;69.25;100803.46;107627;1274;74362;-74
2022/09/19 11:52:56;;;;;;;6.90;1.30;;;;;;;16.20;68.64;100802.18;106631;1271;2068686;-74
2022/09/19 11:55:34;;;;;;;5.50;1.20;;;;;;;16.31;66.51;100803.92;107599;1271;59925;-74